Portada
METAR-TAF:

METAR-TAF

Aeropuertos :

Aeropuerto Internacional de la Reina Alia

Amán-Queen Alia, Jordania

latitud: 31-40N, longitud: 035-58E, altitud: 721 m

Observación

El informe se hizo hace 42 minutos, a las 19:00 UTC
Viento 7 kt del oeste-noroeste
Temperatura 17°C
Humedad 72%
Presión 1023 hPa
Visibilidad: 6000 m

METAR: OJAI 201900Z 30007KT 6000 NSC 17/12 Q1023 NOSIG

Hora: 22:42 (19:42 UTC)

Pronóstico

El informe se hizo hace 2 horas y 42 minutos, a las 17:00 UTC
Pronóstico válido del 20 a las 18 UTC al 21 a las 24 UTC
Viento 12 kt del oeste-noroeste
Visibilidad: 5000 m
Nubes dispersas a una altura de 3500 ft
calima
Temporalmente
del 21 a las 01 UTC al 21 a las 06 UTC
Viento 2 kt con dirección variable
Visibilidad: 2000 m
neblina
Probabilidad 30%
del 21 a las 02 UTC al 21 a las 05 UTC
Visibilidad: 0900 m
niebla

TAF: OJAI 201700Z 2018/2124 29012KT 5000 HZ SCT035 TEMPO 2101/2106 VRB02KT 2000 BR PROB30 2102/2105 0900 FG

Observaciones y pronósticos meteorológicos de más de 4000 aeropuertos (mensajes METAR y TAF).

Los puntos amarillos y rojos representan las estaciones disponibles.

Ponga el ratón en el punto deseado para ver el nombre de la estación.

Haga clic para ver las observaciones y los pronósticos meteorológicos.

Para cambiar el mapa : haga clic en los botones verdes con una cruz de color negro para hacer un zoom, en el botón verde con un guión para alejar o en las flechas verdes para mapas adyacentes.


METAR-TAF: